createdAt,value
2023-07-17T00:00:13.933Z,81.76
2023-07-17T00:02:41.452Z,81.54
2023-07-17T00:05:08.453Z,82.06
2023-07-17T00:07:35.114Z,82.01
2023-07-17T00:10:01.663Z,82.27
2023-07-17T00:12:28.320Z,82.22
2023-07-17T00:14:54.844Z,82.21
2023-07-17T00:17:21.394Z,82.57
2023-07-17T00:19:57.771Z,82.45
2023-07-17T00:22:25.373Z,82.67
2023-07-17T00:24:53.218Z,82.37
2023-07-17T00:27:20.390Z,82.61
2023-07-17T00:29:47.704Z,82.57
2023-07-17T00:32:14.923Z,82.47
2023-07-17T00:34:41.642Z,82.84
2023-07-17T00:37:08.949Z,82.43
2023-07-17T00:39:35.621Z,82.47
2023-07-17T00:42:02.947Z,82.30
2023-07-17T00:44:29.516Z,82.26
2023-07-17T00:46:56.648Z,82.36
2023-07-17T00:49:27.089Z,82.88
2023-07-17T00:51:54.624Z,83.14
2023-07-17T00:54:21.333Z,83.12
2023-07-17T00:56:48.256Z,83.88
2023-07-17T00:59:15.561Z,83.77
2023-07-17T01:01:43.135Z,83.65
2023-07-17T01:04:09.938Z,83.57
2023-07-17T01:06:42.819Z,83.25
2023-07-17T01:09:11.823Z,83.75
2023-07-17T01:11:38.424Z,83.65
2023-07-17T01:14:05.134Z,83.83
2023-07-17T01:16:31.794Z,83.84
2023-07-17T01:18:58.320Z,84.29
2023-07-17T01:21:27.406Z,84.55
2023-07-17T01:23:55.616Z,84.74
2023-07-17T01:26:22.217Z,84.87
2023-07-17T01:28:48.774Z,85.02
2023-07-17T01:31:15.630Z,85.12
2023-07-17T01:33:42.412Z,85.11
2023-07-17T01:36:08.976Z,85.17
2023-07-17T01:38:35.514Z,85.33
2023-07-17T01:41:02.246Z,85.53
2023-07-17T01:43:28.781Z,85.34
2023-07-17T01:45:55.364Z,85.75
2023-07-17T01:48:21.905Z,85.86
2023-07-17T01:50:48.775Z,85.74
2023-07-17T01:53:20.013Z,86.25
2023-07-17T01:55:47.344Z,86.68
2023-07-17T01:58:14.057Z,86.81
2023-07-17T02:00:40.634Z,87.41
2023-07-17T02:03:07.301Z,87.77
2023-07-17T02:05:33.853Z,88.10
2023-07-17T02:08:00.360Z,88.76
2023-07-17T02:10:26.903Z,88.84
2023-07-17T02:12:53.379Z,89.23
2023-07-17T02:15:19.868Z,89.25
2023-07-17T02:17:46.370Z,89.74
2023-07-17T02:20:14.513Z,89.85
2023-07-17T02:22:42.260Z,89.96
2023-07-17T02:25:09.252Z,90.30
2023-07-17T02:27:36.219Z,90.28
2023-07-17T02:30:04.163Z,90.13
2023-07-17T02:32:31.445Z,90.48
2023-07-17T02:34:58.046Z,90.59
2023-07-17T02:37:25.180Z,90.85
2023-07-17T02:39:52.407Z,90.83
2023-07-17T02:42:19.229Z,90.90
2023-07-17T02:44:47.433Z,90.99
2023-07-17T02:47:14.289Z,91.17
2023-07-17T02:49:41.003Z,91.37
2023-07-17T02:52:08.498Z,91.26
2023-07-17T02:54:38.262Z,91.54
2023-07-17T02:57:06.037Z,91.76
2023-07-17T02:59:33.249Z,92.00
2023-07-17T03:01:59.862Z,92.09
2023-07-17T03:04:26.532Z,92.13
2023-07-17T03:06:53.214Z,92.48
2023-07-17T03:09:19.980Z,92.80
2023-07-17T03:11:46.493Z,92.91
2023-07-17T03:14:13.001Z,93.14
2023-07-17T03:16:39.638Z,93.30
2023-07-17T03:19:06.288Z,93.17
2023-07-17T03:21:35.366Z,93.30
2023-07-17T03:24:03.806Z,93.46
2023-07-17T03:26:30.373Z,94.03
2023-07-17T03:28:56.950Z,94.90
2023-07-17T03:31:23.624Z,94.97
2023-07-17T03:33:50.450Z,95.17
2023-07-17T03:36:17.161Z,95.17
2023-07-17T03:38:43.736Z,95.56
2023-07-17T03:41:10.372Z,95.54
2023-07-17T03:43:37.144Z,96.17
2023-07-17T03:46:03.648Z,96.00
2023-07-17T03:48:30.134Z,96.12
2023-07-17T03:50:57.123Z,96.16
2023-07-17T03:53:25.014Z,96.30
2023-07-17T03:55:51.556Z,96.25
2023-07-17T03:58:18.592Z,96.81
2023-07-17T04:00:45.128Z,96.88
2023-07-17T04:03:11.787Z,96.97
2023-07-17T04:05:38.365Z,97.09
2023-07-17T04:08:04.877Z,97.17
2023-07-17T04:10:31.576Z,97.11
2023-07-17T04:12:58.110Z,97.15
2023-07-17T04:15:24.667Z,97.11
2023-07-17T04:17:51.232Z,97.01
2023-07-17T04:20:17.776Z,97.02
2023-07-17T04:22:44.360Z,97.08
2023-07-17T04:25:10.944Z,97.30
2023-07-17T04:27:37.786Z,97.55
2023-07-17T04:30:05.705Z,97.41
2023-07-17T04:32:32.313Z,97.56
2023-07-17T04:34:58.963Z,97.66
2023-07-17T04:37:25.478Z,97.81
2023-07-17T04:39:52.079Z,97.70
2023-07-17T04:42:18.800Z,97.66
2023-07-17T04:44:45.440Z,97.82
2023-07-17T04:47:12.923Z,97.72
2023-07-17T04:49:39.498Z,98.21
2023-07-17T04:52:06.250Z,98.11
2023-07-17T04:54:32.789Z,98.36
2023-07-17T04:56:59.314Z,98.14
2023-07-17T04:59:25.891Z,98.28
2023-07-17T05:01:52.443Z,98.07
2023-07-17T05:04:19.376Z,98.03
2023-07-17T05:06:45.846Z,97.92
2023-07-17T05:09:12.401Z,97.34
2023-07-17T05:11:38.935Z,97.40
2023-07-17T05:14:05.421Z,96.96
2023-07-17T05:16:31.977Z,97.35
2023-07-17T05:18:58.906Z,97.33
2023-07-17T05:21:26.449Z,96.55
2023-07-17T05:23:53.204Z,96.45
2023-07-17T05:26:21.937Z,96.54
2023-07-17T05:28:50.311Z,96.28
2023-07-17T05:31:17.295Z,96.00
2023-07-17T05:33:44.441Z,95.76
2023-07-17T05:36:11.020Z,95.93
2023-07-17T05:38:37.734Z,95.93
2023-07-17T05:41:04.319Z,95.89
2023-07-17T05:43:32.239Z,96.05
2023-07-17T05:45:59.050Z,96.05
2023-07-17T05:48:25.645Z,95.37
2023-07-17T05:50:52.147Z,95.21
2023-07-17T05:53:18.662Z,95.21
2023-07-17T05:55:45.250Z,95.21
2023-07-17T05:58:11.746Z,95.54
2023-07-17T06:00:38.292Z,95.02
2023-07-17T06:03:04.925Z,94.99
2023-07-17T06:05:31.619Z,95.00
2023-07-17T06:07:58.809Z,95.61
2023-07-17T06:10:25.348Z,96.18
2023-07-17T06:12:51.859Z,96.69
2023-07-17T06:15:18.590Z,95.95
2023-07-17T06:17:45.227Z,95.53
2023-07-17T06:20:11.817Z,95.40
2023-07-17T06:22:39.015Z,94.93
2023-07-17T06:25:06.358Z,95.10
2023-07-17T06:27:33.562Z,95.19
2023-07-17T06:30:00.245Z,95.39
2023-07-17T06:32:27.640Z,94.19
2023-07-17T06:34:54.409Z,94.47
2023-07-17T06:37:20.939Z,95.09
2023-07-17T06:39:47.442Z,94.62
2023-07-17T06:42:14.043Z,94.67
2023-07-17T06:44:40.715Z,94.78
2023-07-17T06:47:14.180Z,94.59
2023-07-17T06:49:47.434Z,94.73
2023-07-17T06:52:14.000Z,94.61
2023-07-17T06:54:57.459Z,94.20
2023-07-17T06:57:27.059Z,92.79
2023-07-17T06:59:53.578Z,92.34
2023-07-17T07:02:20.081Z,92.17
2023-07-17T07:04:46.588Z,92.29
2023-07-17T07:07:13.096Z,92.85
2023-07-17T07:09:39.581Z,91.31
2023-07-17T07:12:06.491Z,91.84
2023-07-17T07:14:33.043Z,93.04
2023-07-17T07:16:59.588Z,91.98
2023-07-17T07:19:26.093Z,91.84
2023-07-17T07:21:52.568Z,90.56
2023-07-17T07:24:19.534Z,91.68
2023-07-17T07:26:46.052Z,90.04
2023-07-17T07:29:12.576Z,90.28
2023-07-17T07:31:39.108Z,90.09
2023-07-17T07:34:05.662Z,88.77
2023-07-17T07:36:32.204Z,88.13
2023-07-17T07:38:58.824Z,87.98
2023-07-17T07:41:25.380Z,85.49
2023-07-17T07:43:51.910Z,88.33
2023-07-17T07:46:18.775Z,86.84
2023-07-17T07:48:45.539Z,87.84
2023-07-17T07:51:12.079Z,86.60
2023-07-17T07:53:42.904Z,88.82
2023-07-17T07:56:10.065Z,87.13
2023-07-17T07:58:36.646Z,85.57
2023-07-17T08:01:03.658Z,85.79
2023-07-17T08:03:30.643Z,85.46
2023-07-17T08:05:57.299Z,84.72
2023-07-17T08:08:23.889Z,83.95
2023-07-17T08:10:54.362Z,83.39
2023-07-17T08:13:21.111Z,84.43
2023-07-17T08:15:48.693Z,82.82
2023-07-17T08:18:15.671Z,83.91
2023-07-17T08:20:42.521Z,81.64
2023-07-17T08:23:09.429Z,82.56
2023-07-17T08:25:36.057Z,81.19
2023-07-17T08:28:02.643Z,79.30
2023-07-17T08:30:29.260Z,79.32
2023-07-17T08:32:55.796Z,77.26
2023-07-17T08:35:22.347Z,77.60
2023-07-17T08:37:48.862Z,78.45
2023-07-17T08:40:16.665Z,77.47
2023-07-17T08:42:47.027Z,75.76
2023-07-17T08:45:15.141Z,77.96
2023-07-17T08:47:41.934Z,76.55
2023-07-17T08:50:09.672Z,79.16
2023-07-17T08:52:36.337Z,79.62
2023-07-17T08:55:03.075Z,76.97
2023-07-17T08:57:32.333Z,76.56
2023-07-17T08:59:59.029Z,74.04
2023-07-17T09:02:26.465Z,73.96
2023-07-17T09:04:53.088Z,74.07
2023-07-17T09:07:19.611Z,74.08
2023-07-17T09:09:46.119Z,73.91
2023-07-17T09:12:13.343Z,69.52
2023-07-17T09:14:40.657Z,69.77
2023-07-17T09:17:11.257Z,70.20
2023-07-17T09:19:38.329Z,71.27
2023-07-17T09:22:07.369Z,71.82
2023-07-17T09:24:35.244Z,77.41
2023-07-17T09:27:04.967Z,78.80
2023-07-17T09:29:31.499Z,76.42
2023-07-17T09:32:14.109Z,77.45
2023-07-17T09:34:40.583Z,78.14
2023-07-17T09:37:11.004Z,77.94
2023-07-17T09:39:39.360Z,79.51
2023-07-17T09:42:21.897Z,81.09
2023-07-17T09:44:50.276Z,88.67
2023-07-17T09:47:16.872Z,93.63
2023-07-17T09:49:44.949Z,98.05
2023-07-17T09:52:11.816Z,100.00
2023-07-17T09:54:40.861Z,100.00
2023-07-17T09:57:09.384Z,100.00
2023-07-17T09:59:42.226Z,100.00
2023-07-17T10:02:16.376Z,100.00
2023-07-17T10:04:50.446Z,100.00
2023-07-17T10:07:19.492Z,100.00
2023-07-17T10:09:49.562Z,100.00
2023-07-17T10:12:19.685Z,100.00
2023-07-17T10:14:49.054Z,100.00
2023-07-17T10:17:31.502Z,100.00
2023-07-17T10:20:00.577Z,100.00
2023-07-17T10:22:35.775Z,100.00
2023-07-17T10:25:11.738Z,100.00
2023-07-17T10:27:44.716Z,100.00
2023-07-17T10:30:31.207Z,100.00
2023-07-17T10:33:13.752Z,100.00
2023-07-17T10:35:50.546Z,100.00
2023-07-17T10:38:19.338Z,100.00
2023-07-17T10:40:46.586Z,100.00
2023-07-17T10:43:18.498Z,100.00
2023-07-17T10:45:48.234Z,100.00
2023-07-17T10:48:16.320Z,100.00
2023-07-17T10:50:51.047Z,100.00
2023-07-17T10:53:17.704Z,100.00
2023-07-17T10:55:45.020Z,100.00
2023-07-17T10:58:11.574Z,100.00
2023-07-17T11:00:41.416Z,100.00
2023-07-17T11:03:08.008Z,100.00
2023-07-17T11:05:41.582Z,100.00
2023-07-17T11:08:09.152Z,100.00
2023-07-17T11:10:36.663Z,100.00
2023-07-17T11:13:04.577Z,100.00
2023-07-17T11:15:35.088Z,100.00
2023-07-17T11:18:04.043Z,100.00
2023-07-17T11:20:31.420Z,100.00
2023-07-17T11:22:58.848Z,100.00
2023-07-17T11:25:31.307Z,100.00
2023-07-17T11:28:00.825Z,100.00
2023-07-17T11:30:28.714Z,100.00
2023-07-17T11:33:09.151Z,100.00
2023-07-17T11:35:43.511Z,100.00
2023-07-17T11:38:19.768Z,100.00
2023-07-17T11:40:54.481Z,100.00
2023-07-17T11:43:26.126Z,100.00
2023-07-17T11:45:55.769Z,100.00
2023-07-17T11:48:23.868Z,100.00
2023-07-17T11:50:50.413Z,100.00
2023-07-17T11:53:18.348Z,100.00
2023-07-17T11:55:45.993Z,100.00
2023-07-17T11:58:15.459Z,100.00
2023-07-17T12:00:45.956Z,100.00
2023-07-17T12:03:12.549Z,100.00
2023-07-17T12:05:39.981Z,100.00
2023-07-17T12:08:07.103Z,100.00
2023-07-17T12:10:34.548Z,100.00
2023-07-17T12:13:01.764Z,100.00
2023-07-17T12:15:28.602Z,100.00
2023-07-17T12:17:55.804Z,100.00
2023-07-17T12:20:23.435Z,100.00
2023-07-17T12:22:51.635Z,100.00
2023-07-17T12:25:18.671Z,100.00
2023-07-17T12:27:46.131Z,100.00
2023-07-17T12:30:13.236Z,100.00
2023-07-17T12:32:40.076Z,100.00
2023-07-17T12:35:11.002Z,100.00
2023-07-17T12:37:37.548Z,100.00
2023-07-17T12:40:04.651Z,100.00
2023-07-17T12:42:31.268Z,100.00
2023-07-17T12:44:57.826Z,100.00
2023-07-17T12:47:24.400Z,100.00
2023-07-17T12:49:51.258Z,100.00
2023-07-17T12:52:17.807Z,100.00
2023-07-17T12:54:44.325Z,100.00
2023-07-17T12:57:15.612Z,100.00
2023-07-17T12:59:43.107Z,100.00
2023-07-17T13:02:10.444Z,100.00
2023-07-17T13:04:37.040Z,100.00
2023-07-17T13:07:04.256Z,100.00
2023-07-17T13:09:30.787Z,100.00
2023-07-17T13:11:57.419Z,100.00
2023-07-17T13:14:23.975Z,100.00
2023-07-17T13:16:50.458Z,100.00
2023-07-17T13:19:18.954Z,100.00
2023-07-17T13:21:45.537Z,100.00
2023-07-17T13:24:12.632Z,100.00
2023-07-17T13:26:39.230Z,100.00
2023-07-17T13:29:08.588Z,100.00
2023-07-17T13:31:35.788Z,100.00
2023-07-17T13:34:02.431Z,100.00
2023-07-17T13:36:29.058Z,100.00
2023-07-17T13:38:55.641Z,100.00
2023-07-17T13:41:42.172Z,100.00
2023-07-17T13:44:08.860Z,100.00
2023-07-17T13:46:35.705Z,100.00
2023-07-17T13:49:02.753Z,100.00
2023-07-17T13:51:29.418Z,100.00
2023-07-17T13:53:56.080Z,100.00
2023-07-17T13:58:53.773Z,100.00
2023-07-17T14:01:20.800Z,100.00
2023-07-17T14:03:47.838Z,100.00
2023-07-17T14:06:14.722Z,100.00
2023-07-17T14:08:42.678Z,100.00
2023-07-17T14:11:09.481Z,100.00
2023-07-17T14:13:36.094Z,100.00
2023-07-17T14:16:02.730Z,100.00
2023-07-17T14:18:29.278Z,100.00
2023-07-17T14:20:58.048Z,100.00
2023-07-17T14:23:24.612Z,100.00
2023-07-17T14:25:51.192Z,97.82
2023-07-17T14:28:17.701Z,100.00
2023-07-17T14:30:44.324Z,96.45
2023-07-17T14:33:10.906Z,96.79
2023-07-17T14:35:37.519Z,95.88
2023-07-17T14:38:04.066Z,99.76
2023-07-17T14:40:30.742Z,96.79
2023-07-17T14:42:57.252Z,94.48
2023-07-17T14:45:23.791Z,94.16
2023-07-17T14:47:50.418Z,97.05
2023-07-17T14:50:20.373Z,94.13
2023-07-17T14:52:47.884Z,94.18
2023-07-17T14:55:14.433Z,95.50
2023-07-17T14:57:41.074Z,93.27
2023-07-17T15:00:08.535Z,92.87
2023-07-17T15:02:35.117Z,93.93
2023-07-17T15:05:01.620Z,92.32
2023-07-17T15:07:28.190Z,92.24
2023-07-17T15:09:54.727Z,88.44
2023-07-17T15:12:21.413Z,88.06
2023-07-17T15:14:47.920Z,83.98
2023-07-17T15:17:14.450Z,82.73
2023-07-17T15:19:42.272Z,83.85
2023-07-17T15:22:09.547Z,81.03
2023-07-17T15:24:36.185Z,79.43
2023-07-17T15:27:02.950Z,80.65
2023-07-17T15:29:29.554Z,80.29
2023-07-17T15:31:56.116Z,83.59
2023-07-17T15:34:22.651Z,82.97
2023-07-17T15:36:50.434Z,82.35
2023-07-17T15:39:17.048Z,81.04
2023-07-17T15:41:46.548Z,79.53
2023-07-17T15:44:13.295Z,79.18
2023-07-17T15:46:40.040Z,81.54
2023-07-17T15:49:06.615Z,79.82
2023-07-17T15:51:33.183Z,81.02
2023-07-17T15:53:59.689Z,79.18
2023-07-17T15:56:26.606Z,79.78
2023-07-17T15:58:53.192Z,77.91
2023-07-17T16:01:19.767Z,74.94
2023-07-17T16:03:46.394Z,74.00
2023-07-17T16:06:13.864Z,75.68
2023-07-17T16:08:40.381Z,76.46
2023-07-17T16:11:07.501Z,73.65
2023-07-17T16:13:34.060Z,74.63
2023-07-17T16:16:00.585Z,75.46
2023-07-17T16:18:27.078Z,71.43
2023-07-17T16:20:53.753Z,72.58
2023-07-17T16:23:20.301Z,71.58
2023-07-17T16:25:46.876Z,72.18
2023-07-17T16:28:13.456Z,74.40
2023-07-17T16:30:40.077Z,70.41
2023-07-17T16:33:06.596Z,70.33
2023-07-17T16:35:33.243Z,72.17
2023-07-17T16:37:59.724Z,69.65
2023-07-17T16:40:26.322Z,66.42
2023-07-17T16:42:52.874Z,66.28
2023-07-17T16:45:20.037Z,63.78
2023-07-17T16:47:46.627Z,61.41
2023-07-17T16:50:13.298Z,60.52
2023-07-17T16:52:39.864Z,55.89
2023-07-17T16:55:06.816Z,58.10
2023-07-17T16:57:36.379Z,61.57
2023-07-17T17:00:05.067Z,63.35
2023-07-17T17:02:32.045Z,67.11
2023-07-17T17:04:58.788Z,65.34
2023-07-17T17:07:25.344Z,66.18
2023-07-17T17:09:52.819Z,67.09
2023-07-17T17:12:19.426Z,67.48
2023-07-17T17:14:47.925Z,67.42
2023-07-17T17:17:15.966Z,69.41
2023-07-17T17:19:42.726Z,66.89
2023-07-17T17:22:11.351Z,66.73
2023-07-17T17:24:39.716Z,64.27
2023-07-17T17:27:06.455Z,64.46
2023-07-17T17:29:36.258Z,64.71
2023-07-17T17:32:06.359Z,65.14
2023-07-17T17:34:33.123Z,65.21
2023-07-17T17:36:59.812Z,66.83
2023-07-17T17:39:26.837Z,65.65
2023-07-17T17:41:53.432Z,66.82
2023-07-17T17:44:19.947Z,67.64
2023-07-17T17:46:46.558Z,69.22
2023-07-17T17:49:13.493Z,69.31
2023-07-17T17:51:40.035Z,68.65
2023-07-17T17:54:06.905Z,67.77
2023-07-17T17:56:33.627Z,67.29
2023-07-17T17:59:00.240Z,68.08
2023-07-17T18:01:26.870Z,69.81
2023-07-17T18:03:56.413Z,69.65
2023-07-17T18:06:23.156Z,66.89
2023-07-17T18:08:49.698Z,63.87
2023-07-17T18:11:17.905Z,65.04
2023-07-17T18:13:45.914Z,64.88
2023-07-17T18:16:12.564Z,64.73
2023-07-17T18:18:39.302Z,65.41
2023-07-17T18:21:09.779Z,65.54
2023-07-17T18:23:36.361Z,65.08
2023-07-17T18:26:02.910Z,66.65
2023-07-17T18:28:29.426Z,67.60
2023-07-17T18:30:55.999Z,67.58
2023-07-17T18:33:22.530Z,68.65
2023-07-17T18:35:49.892Z,67.34
2023-07-17T18:38:17.437Z,63.95
2023-07-17T18:40:44.696Z,65.18
2023-07-17T18:43:11.545Z,66.96
2023-07-17T18:45:38.413Z,68.06
2023-07-17T18:48:05.200Z,69.77
2023-07-17T18:50:31.721Z,68.99
2023-07-17T18:53:00.202Z,69.23
2023-07-17T18:55:27.091Z,70.03
2023-07-17T18:57:53.820Z,71.25
2023-07-17T19:00:23.462Z,71.38
2023-07-17T19:02:50.635Z,72.83
2023-07-17T19:05:19.118Z,72.86
2023-07-17T19:07:46.925Z,73.46
2023-07-17T19:10:13.530Z,73.48
2023-07-17T19:12:40.206Z,74.30
2023-07-17T19:15:09.393Z,75.18
2023-07-17T19:17:37.320Z,75.99
2023-07-17T19:20:07.438Z,76.84
2023-07-17T19:22:34.458Z,76.57
2023-07-17T19:25:01.140Z,77.02
2023-07-17T19:27:27.658Z,76.87
2023-07-17T19:29:54.182Z,77.06
2023-07-17T19:32:25.525Z,78.07
2023-07-17T19:34:52.625Z,78.57
2023-07-17T19:37:20.324Z,79.58
2023-07-17T19:39:46.972Z,80.26
2023-07-17T19:42:13.478Z,80.09
2023-07-17T19:44:39.969Z,81.65
2023-07-17T19:47:06.689Z,81.47
2023-07-17T19:49:33.985Z,81.91
2023-07-17T19:52:00.484Z,81.70
2023-07-17T19:54:27.100Z,82.20
2023-07-17T19:56:53.664Z,82.33
2023-07-17T19:59:20.172Z,82.23
2023-07-17T20:01:46.672Z,82.91
2023-07-17T20:04:15.517Z,82.98
2023-07-17T20:06:42.652Z,83.88
2023-07-17T20:09:09.473Z,84.54
2023-07-17T20:11:36.294Z,84.87
2023-07-17T20:14:02.924Z,85.13
2023-07-17T20:16:30.209Z,86.05
2023-07-17T20:18:56.821Z,85.86
2023-07-17T20:21:26.003Z,86.20
2023-07-17T20:23:52.620Z,86.80
2023-07-17T20:26:21.534Z,86.67
2023-07-17T20:28:49.038Z,86.25
2023-07-17T20:31:16.168Z,86.20
2023-07-17T20:33:44.762Z,87.74
2023-07-17T20:36:11.394Z,87.66
2023-07-17T20:38:37.999Z,87.68
2023-07-17T20:41:04.556Z,89.30
2023-07-17T20:43:31.118Z,89.82
2023-07-17T20:45:57.745Z,91.01
2023-07-17T20:48:24.598Z,92.60
2023-07-17T20:51:13.151Z,92.44
2023-07-17T20:53:40.614Z,93.16
2023-07-17T20:56:08.107Z,92.98
2023-07-17T20:58:35.304Z,93.46
2023-07-17T21:01:08.363Z,95.75
2023-07-17T21:03:35.993Z,96.09
2023-07-17T21:06:04.292Z,96.91
2023-07-17T21:08:32.063Z,96.13
2023-07-17T21:11:01.841Z,95.00
2023-07-17T21:13:31.255Z,94.78
2023-07-17T21:16:00.040Z,95.22
2023-07-17T21:18:26.605Z,94.54
2023-07-17T21:20:55.108Z,95.65
2023-07-17T21:23:22.088Z,96.14
2023-07-17T21:25:50.173Z,97.14
2023-07-17T21:28:17.677Z,96.80
2023-07-17T21:30:47.543Z,96.45
2023-07-17T21:33:14.462Z,96.65
2023-07-17T21:35:41.341Z,96.97
2023-07-17T21:38:08.036Z,97.24
2023-07-17T21:40:34.547Z,96.93
2023-07-17T21:43:01.137Z,97.48
2023-07-17T21:45:27.875Z,97.72
2023-07-17T21:47:54.380Z,98.17
2023-07-17T21:50:20.993Z,98.82
2023-07-17T21:52:47.541Z,99.13
2023-07-17T21:55:14.777Z,99.93
2023-07-17T21:57:42.306Z,99.90
2023-07-17T22:00:14.077Z,100.00
2023-07-17T22:02:42.645Z,100.00
2023-07-17T22:05:11.496Z,100.00
2023-07-17T22:07:37.990Z,99.78
2023-07-17T22:10:05.049Z,99.30
2023-07-17T22:12:31.586Z,99.94
2023-07-17T22:14:58.096Z,100.00
2023-07-17T22:17:25.018Z,100.00
2023-07-17T22:19:52.508Z,100.00
2023-07-17T22:22:21.093Z,100.00
2023-07-17T22:24:49.449Z,100.00
2023-07-17T22:27:16.132Z,100.00
2023-07-17T22:29:42.741Z,100.00
2023-07-17T22:32:09.276Z,100.00
2023-07-17T22:34:35.783Z,100.00
2023-07-17T22:37:04.127Z,100.00
2023-07-17T22:39:31.242Z,100.00
2023-07-17T22:41:57.859Z,100.00
2023-07-17T22:44:24.759Z,100.00
2023-07-17T22:46:51.351Z,100.00
2023-07-17T22:49:18.000Z,100.00
2023-07-17T22:51:44.534Z,100.00
2023-07-17T22:54:11.007Z,100.00
2023-07-17T22:56:37.650Z,100.00
2023-07-17T22:59:04.564Z,100.00
2023-07-17T23:01:31.158Z,100.00
2023-07-17T23:03:57.742Z,100.00
2023-07-17T23:06:24.346Z,100.00
2023-07-17T23:08:54.126Z,100.00
2023-07-17T23:11:21.290Z,100.00
2023-07-17T23:13:48.146Z,100.00
2023-07-17T23:16:14.848Z,100.00
2023-07-17T23:18:41.448Z,100.00
2023-07-17T23:21:09.042Z,100.00
2023-07-17T23:23:35.879Z,100.00
2023-07-17T23:26:02.592Z,100.00
2023-07-17T23:28:29.364Z,100.00
2023-07-17T23:30:56.504Z,100.00
2023-07-17T23:33:23.194Z,100.00
2023-07-17T23:35:49.674Z,100.00
2023-07-17T23:38:16.936Z,100.00
2023-07-17T23:40:44.888Z,100.00
2023-07-17T23:43:13.247Z,100.00
2023-07-17T23:45:41.508Z,100.00
2023-07-17T23:48:08.824Z,100.00
2023-07-17T23:50:36.979Z,100.00
2023-07-17T23:53:03.921Z,100.00
2023-07-17T23:55:32.298Z,100.00
2023-07-17T23:58:04.998Z,100.00
